Pecos, TX (79772)

1:19 PM CDT on July 27, 2016 (GMT -0500)
Duval Rd | | Change Station

Elev 2680 ft 31.47 °N, 103.60 °W | Updated 7 minutes ago

Clear
Clear
100.8 °F
Feels Like 104 °F
N
4.2
Wind Variable Wind from NNE

Today
High -- | Low -- °F
--% Chance of Precip.
Yesterday
High -- | Low -- °F
Precip. -- in
Pressure 30.04 in
Visibility 10.0 miles
Clouds Clear
Heat Index 104 °F
Dew Point 65 °F
Humidity 31%
Rainfall 0.00 in
Snow Depth Not available.
7:08 AM 8:53 PM
Last Quarter, 41% visible
METAR KPEQ 271755Z AUTO 06006KT 10SM CLR 33/17 A3004 RMK AO2 T03300165 10332 20230
Pressure 30.04 in
Visibility 10.0 miles
Clouds Clear
Heat Index 104 °F
Dew Point 65 °F
Humidity 31%
Rainfall 0.00 in
Snow Depth Not available.
7:08 AM 8:53 PM
Last Quarter, 41% visible
METAR KPEQ 271755Z AUTO 06006KT 10SM CLR 33/17 A3004 RMK AO2 T03300165 10332 20230

10-Day Weather Forecast

Almanac

Astronomy

Jul. 27, 2016 Rise Set
Actual Time
Civil Twilight
Nautical Twilight
Astronomical Twilight
Moon
Length of Visible Light
Length of Day
Tomorrow will be .
, % of the Moon is Illuminated

Today's Extremes

State Highs State Lows

Community

WunderPhotos

Upload Photos

1,927,894 photos uploaded!

WunderBlog® & News

Nearby

Air Quality

  Air Quality AQ Index Pollutant
Not available.

Snow Depth

Station Depth Elevation

Earthquake Activity

City Distance Mag. Time & Date
Minimum magnitude displayed is 2.5.

Coastal Water Temperatures

Place Temperature

Stations

Nearby Weather Stations

Station Location Temp. Windchill Dew Point Humidity Wind Precip. Elev Updated Type
                   

Watches & Warnings

There are currently no watches in effect.